Terminal Aerodrome Forecast
Issued by NWS

Current Version | Previous Version | Text Only | Print | Product List | Glossary Off
Versions: 1 2 3 4 5 6 7 8 9 10 11 12 13 14 15

438
FTUS41 KPBZ 240918 AAA
TAFHLG
TAF AMD
KHLG 240918Z 2409/2506 26006KT P6SM BKN010
     FM241000 28006KT P6SM SCT060
     FM241700 26010G18KT P6SM SCT250
     FM250100 27005KT P6SM SCT250=

USA.gov is the U.S. government's official web portal to all federal, state and local government web resources and services.